createdAt,value
2022-11-30T00:00:58.411Z,45.20
2022-11-30T00:01:58.488Z,39.90
2022-11-30T00:02:57.520Z,35.70
2022-11-30T00:03:58.374Z,40.20
2022-11-30T00:04:57.393Z,35.20
2022-11-30T00:05:58.344Z,39.50
2022-11-30T00:06:57.372Z,47.50
2022-11-30T00:07:57.385Z,33.90
2022-11-30T00:08:57.346Z,43.30
2022-11-30T00:09:57.328Z,38.40
2022-11-30T00:10:57.311Z,40.80
2022-11-30T00:11:57.322Z,39.50
2022-11-30T00:12:57.282Z,43.80
2022-11-30T00:13:58.229Z,48.30
2022-11-30T00:14:57.256Z,42.60
2022-11-30T00:15:58.207Z,46.50
2022-11-30T00:16:58.235Z,42.10
2022-11-30T00:17:57.228Z,48.00
2022-11-30T00:18:57.218Z,52.60
2022-11-30T00:19:57.322Z,48.40
2022-11-30T00:20:57.177Z,42.70
2022-11-30T00:21:57.168Z,46.00
2022-11-30T00:22:58.111Z,36.00
2022-11-30T00:23:57.160Z,39.30
2022-11-30T00:24:57.119Z,46.30
2022-11-30T00:25:57.121Z,44.20
2022-11-30T00:26:57.099Z,45.00
2022-11-30T00:27:57.085Z,40.80
2022-11-30T00:28:58.030Z,36.40
2022-11-30T00:29:57.060Z,38.10
2022-11-30T00:30:57.075Z,42.90
2022-11-30T00:31:57.989Z,45.30
2022-11-30T00:32:57.010Z,44.80
2022-11-30T00:33:57.967Z,43.70
2022-11-30T00:34:56.991Z,42.30
2022-11-30T00:35:56.990Z,50.70
2022-11-30T00:36:56.960Z,45.70
2022-11-30T00:37:56.948Z,43.90
2022-11-30T00:38:56.949Z,45.20
2022-11-30T00:39:56.921Z,39.80
2022-11-30T00:40:56.901Z,35.50
2022-11-30T00:41:56.899Z,35.00
2022-11-30T00:42:56.882Z,39.40
2022-11-30T00:43:56.872Z,41.50
2022-11-30T00:44:56.855Z,42.80
2022-11-30T00:45:56.897Z,42.20
2022-11-30T00:46:56.822Z,39.30
2022-11-30T00:47:56.824Z,34.10
2022-11-30T00:48:56.853Z,34.90
2022-11-30T00:49:56.790Z,39.30
2022-11-30T00:50:56.768Z,38.50
2022-11-30T00:51:56.762Z,36.90
2022-11-30T00:52:56.754Z,39.90
2022-11-30T00:53:56.732Z,37.40
2022-11-30T00:54:56.711Z,40.10
2022-11-30T00:55:56.704Z,34.50
2022-11-30T00:56:56.681Z,46.50
2022-11-30T00:57:56.673Z,44.70
2022-11-30T00:58:56.661Z,41.00
2022-11-30T00:59:56.648Z,32.90
2022-11-30T01:00:56.702Z,41.90
2022-11-30T01:01:56.623Z,34.70
2022-11-30T01:02:56.608Z,45.90
2022-11-30T01:03:56.595Z,37.10
2022-11-30T01:04:56.567Z,35.50
2022-11-30T01:05:56.566Z,39.80
2022-11-30T01:06:56.548Z,39.70
2022-11-30T01:07:56.574Z,43.70
2022-11-30T01:08:56.525Z,43.60
2022-11-30T01:09:56.515Z,34.10
2022-11-30T01:10:56.495Z,38.50
2022-11-30T01:11:56.486Z,33.20
2022-11-30T01:12:56.461Z,33.10
2022-11-30T01:13:56.459Z,36.50
2022-11-30T01:14:56.457Z,38.80
2022-11-30T01:15:56.481Z,35.90
2022-11-30T01:16:56.547Z,39.90
2022-11-30T01:17:56.400Z,32.60
2022-11-30T01:18:57.349Z,42.70
2022-11-30T01:19:56.380Z,33.50
2022-11-30T01:20:56.360Z,33.60
2022-11-30T01:21:56.349Z,42.10
2022-11-30T01:22:56.327Z,42.60
2022-11-30T01:23:56.337Z,33.00
2022-11-30T01:24:56.313Z,33.50
2022-11-30T01:25:56.295Z,33.40
2022-11-30T01:26:56.270Z,41.50
2022-11-30T01:27:56.271Z,53.90
2022-11-30T01:28:56.254Z,35.30
2022-11-30T01:29:56.237Z,39.00
2022-11-30T01:30:56.269Z,40.40
2022-11-30T01:31:56.221Z,42.60
2022-11-30T01:32:56.201Z,32.40
2022-11-30T01:33:56.192Z,33.30
2022-11-30T01:34:56.167Z,32.60
2022-11-30T01:35:56.163Z,33.10
2022-11-30T01:36:56.141Z,38.90
2022-11-30T01:37:56.144Z,35.30
2022-11-30T01:38:56.128Z,37.20
2022-11-30T01:39:56.106Z,36.30
2022-11-30T01:40:56.083Z,35.10
2022-11-30T01:41:57.033Z,37.10
2022-11-30T01:42:56.062Z,42.60
2022-11-30T01:43:56.054Z,35.70
2022-11-30T01:44:56.034Z,45.80
2022-11-30T01:45:56.065Z,36.60
2022-11-30T01:46:56.005Z,34.20
2022-11-30T01:47:56.001Z,34.60
2022-11-30T01:48:57.466Z,41.50
2022-11-30T01:49:55.967Z,34.60
2022-11-30T01:50:55.945Z,34.90
2022-11-30T01:51:55.936Z,33.00
2022-11-30T01:52:55.916Z,32.90
2022-11-30T01:53:55.926Z,42.30
2022-11-30T01:54:55.895Z,37.90
2022-11-30T01:55:55.884Z,34.20
2022-11-30T01:56:55.875Z,39.50
2022-11-30T01:57:55.857Z,38.80
2022-11-30T01:58:55.849Z,41.90
2022-11-30T01:59:55.827Z,45.40
2022-11-30T02:00:55.872Z,33.50
2022-11-30T02:01:55.810Z,48.90
2022-11-30T02:02:55.841Z,34.50
2022-11-30T02:03:55.781Z,45.20
2022-11-30T02:04:55.761Z,40.90
2022-11-30T02:05:55.771Z,40.30
2022-11-30T02:06:55.741Z,36.70
2022-11-30T02:07:55.820Z,34.10
2022-11-30T02:08:55.718Z,37.00
2022-11-30T02:09:55.691Z,37.10
2022-11-30T02:10:56.642Z,33.40
2022-11-30T02:11:55.671Z,36.90
2022-11-30T02:12:55.661Z,32.90
2022-11-30T02:13:55.654Z,34.60
2022-11-30T02:14:55.629Z,34.20
2022-11-30T02:15:55.713Z,32.60
2022-11-30T02:16:55.602Z,31.10
2022-11-30T02:17:55.582Z,36.40
2022-11-30T02:18:55.592Z,32.40
2022-11-30T02:19:55.568Z,32.30
2022-11-30T02:20:55.552Z,36.10
2022-11-30T02:21:55.538Z,31.20
2022-11-30T02:22:55.514Z,35.60
2022-11-30T02:23:55.509Z,32.30
2022-11-30T02:24:55.495Z,36.20
2022-11-30T02:25:55.476Z,34.40
2022-11-30T02:26:55.466Z,36.20
2022-11-30T02:27:55.455Z,32.90
2022-11-30T02:28:55.457Z,36.40
2022-11-30T02:29:55.421Z,34.90
2022-11-30T02:30:55.417Z,34.10
2022-11-30T02:31:55.660Z,34.70
2022-11-30T02:32:55.387Z,32.80
2022-11-30T02:33:55.385Z,39.20
2022-11-30T02:34:55.357Z,37.10
2022-11-30T02:35:55.602Z,31.30
2022-11-30T02:36:55.327Z,36.90
2022-11-30T02:37:55.318Z,35.80
2022-11-30T02:38:55.336Z,34.00
2022-11-30T02:39:56.233Z,32.60
2022-11-30T02:40:55.277Z,32.70
2022-11-30T02:41:55.257Z,41.80
2022-11-30T02:42:55.251Z,32.20
2022-11-30T02:43:55.237Z,33.10
2022-11-30T02:44:55.236Z,34.80
2022-11-30T02:45:55.259Z,40.00
2022-11-30T02:46:55.204Z,33.20
2022-11-30T02:47:55.179Z,36.70
2022-11-30T02:48:55.180Z,34.20
2022-11-30T02:49:56.104Z,38.20
2022-11-30T02:50:55.141Z,32.40
2022-11-30T02:51:55.120Z,37.80
2022-11-30T02:52:55.114Z,50.00
2022-11-30T02:53:55.109Z,34.10
2022-11-30T02:54:55.090Z,41.70
2022-11-30T02:55:55.069Z,36.80
2022-11-30T02:56:55.069Z,49.00
2022-11-30T02:57:55.042Z,50.30
2022-11-30T02:58:55.050Z,45.90
2022-11-30T02:59:55.021Z,42.80
2022-11-30T03:00:55.001Z,52.20
2022-11-30T03:01:55.008Z,49.30
2022-11-30T03:02:55.023Z,52.20
2022-11-30T03:03:54.974Z,37.60
2022-11-30T03:04:55.897Z,39.80
2022-11-30T03:05:54.931Z,49.60
2022-11-30T03:06:54.932Z,47.60
2022-11-30T03:07:54.999Z,52.30
2022-11-30T03:08:54.912Z,49.10
2022-11-30T03:09:54.885Z,52.40
2022-11-30T03:10:54.870Z,50.60
2022-11-30T03:11:54.855Z,46.40
2022-11-30T03:12:54.855Z,52.60
2022-11-30T03:13:54.841Z,48.30
2022-11-30T03:14:54.821Z,52.80
2022-11-30T03:15:54.819Z,57.80
2022-11-30T03:16:54.792Z,56.20
2022-11-30T03:17:54.775Z,50.30
2022-11-30T03:18:54.777Z,44.20
2022-11-30T03:19:55.691Z,47.10
2022-11-30T03:20:54.744Z,47.60
2022-11-30T03:21:54.716Z,50.90
2022-11-30T03:22:54.702Z,63.30
2022-11-30T03:23:55.653Z,37.80
2022-11-30T03:24:55.633Z,47.10
2022-11-30T03:25:54.668Z,50.00
2022-11-30T03:26:54.658Z,54.10
2022-11-30T03:27:54.633Z,43.90
2022-11-30T03:28:54.637Z,37.70
2022-11-30T03:29:55.552Z,43.10
2022-11-30T03:30:54.681Z,53.40
2022-11-30T03:31:54.578Z,45.20
2022-11-30T03:32:54.571Z,53.20
2022-11-30T03:33:54.568Z,43.80
2022-11-30T03:34:54.546Z,52.40
2022-11-30T03:35:54.525Z,50.90
2022-11-30T03:36:54.517Z,45.40
2022-11-30T03:37:54.497Z,51.20
2022-11-30T03:38:54.508Z,53.00
2022-11-30T03:39:58.074Z,46.60
2022-11-30T03:40:54.460Z,48.20
2022-11-30T03:41:54.448Z,45.30
2022-11-30T03:42:54.437Z,52.40
2022-11-30T03:43:54.440Z,50.50
2022-11-30T03:44:54.410Z,58.60
2022-11-30T03:45:54.390Z,47.50
2022-11-30T03:46:54.432Z,53.40
2022-11-30T03:47:54.371Z,51.70
2022-11-30T03:48:54.372Z,49.80
2022-11-30T03:49:55.287Z,53.60
2022-11-30T03:50:54.323Z,59.50
2022-11-30T03:51:54.312Z,64.90
2022-11-30T03:52:54.302Z,54.30
2022-11-30T03:53:54.293Z,57.20
2022-11-30T03:54:54.264Z,73.90
2022-11-30T03:55:54.260Z,51.10
2022-11-30T03:56:54.260Z,59.90
2022-11-30T03:57:54.232Z,63.70
2022-11-30T03:58:54.220Z,61.10
2022-11-30T03:59:55.154Z,68.80
2022-11-30T04:00:54.195Z,60.30
2022-11-30T04:01:54.263Z,58.90
2022-11-30T04:02:54.201Z,58.30
2022-11-30T04:03:54.170Z,61.20
2022-11-30T04:04:54.137Z,54.30
2022-11-30T04:05:54.123Z,61.80
2022-11-30T04:06:54.104Z,60.80
2022-11-30T04:07:54.186Z,58.40
2022-11-30T04:08:54.092Z,60.00
2022-11-30T04:09:54.076Z,64.90
2022-11-30T04:10:54.061Z,58.60
2022-11-30T04:11:54.051Z,59.60
2022-11-30T04:12:54.034Z,65.20
2022-11-30T04:13:54.017Z,61.20
2022-11-30T04:14:53.995Z,61.20
2022-11-30T04:15:54.028Z,57.70
2022-11-30T04:16:53.967Z,70.40
2022-11-30T04:17:53.959Z,58.80
2022-11-30T04:18:53.955Z,59.90
2022-11-30T04:19:53.932Z,61.50
2022-11-30T04:20:53.920Z,57.80
2022-11-30T04:21:53.903Z,56.80
2022-11-30T04:22:53.888Z,67.40
2022-11-30T04:23:53.884Z,62.20
2022-11-30T04:24:53.858Z,66.70
2022-11-30T04:25:53.848Z,61.60
2022-11-30T04:26:53.829Z,62.10
2022-11-30T04:27:53.819Z,57.00
2022-11-30T04:28:53.810Z,70.20
2022-11-30T04:29:53.789Z,58.30
2022-11-30T04:30:53.833Z,55.20
2022-11-30T04:31:53.765Z,61.10
2022-11-30T04:32:54.694Z,59.00
2022-11-30T04:33:53.745Z,69.90
2022-11-30T04:34:53.731Z,65.70
2022-11-30T04:35:53.712Z,58.10
2022-11-30T04:36:57.401Z,52.90
2022-11-30T04:37:54.689Z,61.60
2022-11-30T04:38:53.694Z,59.20
2022-11-30T04:39:53.660Z,68.80
2022-11-30T04:40:53.636Z,50.40
2022-11-30T04:41:53.651Z,62.20
2022-11-30T04:42:53.632Z,66.50
2022-11-30T04:43:53.611Z,65.40
2022-11-30T04:44:53.591Z,64.20
2022-11-30T04:45:53.571Z,60.00
2022-11-30T04:46:53.626Z,54.90
2022-11-30T04:47:53.558Z,51.20
2022-11-30T04:48:53.539Z,59.80
2022-11-30T04:49:53.525Z,61.00
2022-11-30T04:50:53.525Z,65.40
2022-11-30T04:51:53.493Z,66.50
2022-11-30T04:52:53.480Z,56.80
2022-11-30T04:53:53.472Z,64.70
2022-11-30T04:54:53.454Z,63.00
2022-11-30T04:55:53.439Z,55.10
2022-11-30T04:56:53.421Z,55.20
2022-11-30T04:57:53.415Z,59.20
2022-11-30T04:58:53.408Z,65.40
2022-11-30T04:59:53.386Z,51.20
2022-11-30T05:00:53.364Z,59.20
2022-11-30T05:01:53.390Z,60.10
2022-11-30T05:02:53.482Z,62.60
2022-11-30T05:03:53.335Z,55.50
2022-11-30T05:04:53.372Z,56.30
2022-11-30T05:05:53.307Z,55.20
2022-11-30T05:06:53.287Z,65.70
2022-11-30T05:07:53.309Z,52.80
2022-11-30T05:08:53.267Z,68.40
2022-11-30T05:09:53.259Z,55.10
2022-11-30T05:10:53.499Z,59.60
2022-11-30T05:11:53.218Z,55.00
2022-11-30T05:12:53.207Z,58.30
2022-11-30T05:13:53.198Z,56.50
2022-11-30T05:14:53.175Z,67.10
2022-11-30T05:15:53.204Z,57.50
2022-11-30T05:16:53.150Z,55.40
2022-11-30T05:17:53.138Z,54.10
2022-11-30T05:18:53.127Z,60.60
2022-11-30T05:19:53.108Z,64.90
2022-11-30T05:20:53.098Z,61.60
2022-11-30T05:21:53.089Z,60.30
2022-11-30T05:22:53.069Z,64.40
2022-11-30T05:23:53.069Z,71.30
2022-11-30T05:24:53.039Z,65.20
2022-11-30T05:25:53.040Z,63.30
2022-11-30T05:26:53.010Z,54.20
2022-11-30T05:27:53.005Z,66.00
2022-11-30T05:28:53.000Z,56.90
2022-11-30T05:29:52.981Z,58.40
2022-11-30T05:30:52.961Z,57.50
2022-11-30T05:31:53.006Z,58.50
2022-11-30T05:32:52.933Z,57.10
2022-11-30T05:33:52.952Z,52.00
2022-11-30T05:34:54.258Z,54.70
2022-11-30T05:35:52.892Z,57.70
2022-11-30T05:36:52.896Z,55.90
2022-11-30T05:37:52.879Z,53.70
2022-11-30T05:38:52.862Z,58.60
2022-11-30T05:39:52.843Z,52.90
2022-11-30T05:40:52.830Z,43.70
2022-11-30T05:41:54.787Z,51.70
2022-11-30T05:42:53.133Z,59.90
2022-11-30T05:43:52.802Z,47.80
2022-11-30T05:44:52.772Z,45.60
2022-11-30T05:45:53.733Z,47.90
2022-11-30T05:46:52.777Z,53.80
2022-11-30T05:47:52.740Z,43.20
2022-11-30T05:48:52.760Z,45.70
2022-11-30T05:49:52.715Z,46.80
2022-11-30T05:50:52.685Z,47.60
2022-11-30T05:51:52.861Z,55.10
2022-11-30T05:52:52.725Z,51.20
2022-11-30T05:53:52.665Z,52.70
2022-11-30T05:54:52.635Z,55.40
2022-11-30T05:56:01.595Z,49.30
2022-11-30T05:56:59.386Z,53.10
2022-11-30T06:05:08.054Z,47.20
2022-11-30T06:05:15.777Z,57.60
2022-11-30T06:06:12.815Z,58.60
2022-11-30T06:07:12.808Z,54.10
2022-11-30T06:08:12.798Z,59.80
2022-11-30T06:09:12.768Z,59.90
2022-11-30T06:10:12.768Z,55.90
2022-11-30T06:11:13.708Z,67.60
2022-11-30T06:12:12.736Z,51.00
2022-11-30T06:13:12.729Z,53.20
2022-11-30T06:14:12.707Z,52.30
2022-11-30T06:15:12.699Z,59.40
2022-11-30T06:16:14.718Z,58.10
2022-11-30T06:17:12.667Z,65.70
2022-11-30T06:18:12.678Z,59.50
2022-11-30T06:19:12.640Z,57.20
2022-11-30T06:20:12.639Z,64.80
2022-11-30T06:21:13.585Z,64.60
2022-11-30T06:22:12.602Z,71.60
2022-11-30T06:23:12.611Z,64.60
2022-11-30T06:24:12.576Z,65.70
2022-11-30T06:25:12.562Z,63.40
2022-11-30T06:26:12.546Z,62.80
2022-11-30T06:27:12.531Z,68.00
2022-11-30T06:28:12.549Z,68.70
2022-11-30T06:29:12.510Z,70.20
2022-11-30T06:30:12.494Z,66.70
2022-11-30T06:31:12.515Z,61.60
2022-11-30T06:32:12.723Z,66.20
2022-11-30T06:33:12.473Z,73.20
2022-11-30T06:34:12.465Z,62.20
2022-11-30T06:35:12.442Z,63.90
2022-11-30T06:36:12.413Z,70.80
2022-11-30T06:37:12.637Z,62.90
2022-11-30T06:38:12.404Z,77.50
2022-11-30T06:39:12.372Z,82.00
2022-11-30T06:40:12.367Z,82.20
2022-11-30T06:41:12.347Z,76.80
2022-11-30T06:42:12.335Z,85.60
2022-11-30T06:43:12.331Z,69.70
2022-11-30T06:44:12.305Z,71.80
2022-11-30T06:45:12.293Z,69.70
2022-11-30T06:46:12.372Z,71.20
2022-11-30T06:47:12.275Z,77.40
2022-11-30T06:48:12.265Z,70.80
2022-11-30T06:49:12.314Z,77.20
2022-11-30T06:50:12.239Z,73.10
2022-11-30T06:51:12.218Z,79.10
2022-11-30T06:52:12.209Z,81.00
2022-11-30T06:53:12.188Z,80.60
2022-11-30T06:54:12.187Z,71.70
2022-11-30T06:55:12.171Z,82.70
2022-11-30T06:56:12.151Z,74.80
2022-11-30T06:57:12.160Z,76.60
2022-11-30T06:58:12.178Z,81.10
2022-11-30T06:59:12.150Z,72.10
2022-11-30T07:00:12.360Z,92.90
2022-11-30T07:01:12.137Z,68.60
2022-11-30T07:02:17.494Z,78.10
2022-11-30T07:03:13.058Z,72.20
2022-11-30T07:04:12.081Z,74.10
2022-11-30T07:05:12.040Z,74.50
2022-11-30T07:06:12.079Z,83.30
2022-11-30T07:07:12.030Z,76.30
2022-11-30T07:08:11.990Z,76.80
2022-11-30T07:09:11.969Z,78.70
2022-11-30T07:10:15.870Z,81.60
2022-11-30T07:11:12.950Z,77.40
2022-11-30T07:12:11.930Z,79.50
2022-11-30T07:13:11.950Z,80.00
2022-11-30T07:14:11.909Z,80.80
2022-11-30T07:15:11.891Z,82.30
2022-11-30T07:16:11.929Z,76.80
2022-11-30T07:17:11.865Z,82.40
2022-11-30T07:18:11.860Z,82.50
2022-11-30T07:19:11.832Z,84.50
2022-11-30T07:20:11.824Z,78.60
2022-11-30T07:21:11.812Z,89.30
2022-11-30T07:22:11.810Z,75.10
2022-11-30T07:23:11.801Z,82.80
2022-11-30T07:24:11.778Z,74.80
2022-11-30T07:25:11.749Z,81.20
2022-11-30T07:26:11.743Z,81.00
2022-11-30T07:27:11.724Z,78.90
2022-11-30T07:28:11.721Z,85.10
2022-11-30T07:29:11.702Z,86.90
2022-11-30T07:30:11.691Z,92.80
2022-11-30T07:31:16.002Z,91.90
2022-11-30T07:32:11.726Z,93.40
2022-11-30T07:33:11.655Z,96.90
2022-11-30T07:34:11.635Z,99.20
2022-11-30T07:35:11.622Z,90.00
2022-11-30T07:36:11.850Z,101.70
2022-11-30T07:37:11.595Z,97.40
2022-11-30T07:38:11.587Z,95.40
2022-11-30T07:39:11.567Z,93.30
2022-11-30T07:40:11.785Z,93.50
2022-11-30T07:41:11.533Z,96.00
2022-11-30T07:42:11.525Z,111.90
2022-11-30T07:43:11.537Z,95.10
2022-11-30T07:44:11.501Z,97.00
2022-11-30T07:45:11.476Z,99.30
2022-11-30T07:46:11.524Z,102.30
2022-11-30T07:47:11.494Z,113.30
2022-11-30T07:48:11.456Z,103.10
2022-11-30T07:49:12.383Z,104.30
2022-11-30T07:50:11.419Z,112.20
2022-11-30T07:51:11.418Z,106.10
2022-11-30T07:52:11.439Z,107.10
2022-11-30T07:53:11.408Z,100.70
2022-11-30T07:54:11.381Z,100.00
2022-11-30T07:55:11.350Z,105.40
2022-11-30T07:56:11.339Z,96.10
2022-11-30T07:57:11.322Z,103.70
2022-11-30T07:58:15.832Z,102.80
2022-11-30T07:59:12.301Z,104.60
2022-11-30T08:00:11.277Z,100.70
2022-11-30T08:01:11.379Z,95.20
2022-11-30T08:02:11.387Z,94.70
2022-11-30T08:03:11.252Z,106.30
2022-11-30T08:04:11.268Z,110.70
2022-11-30T08:05:11.211Z,97.80
2022-11-30T08:06:11.198Z,96.90
2022-11-30T08:07:11.179Z,94.00
2022-11-30T08:08:11.179Z,104.80
2022-11-30T08:09:11.162Z,103.00
2022-11-30T08:10:11.148Z,97.50
2022-11-30T08:11:11.130Z,97.70
2022-11-30T08:12:11.117Z,101.00
2022-11-30T08:13:11.114Z,101.10
2022-11-30T08:14:11.089Z,102.30
2022-11-30T08:15:19.951Z,93.90
2022-11-30T08:16:12.106Z,100.30
2022-11-30T08:17:11.043Z,103.40
2022-11-30T08:18:11.064Z,104.20
2022-11-30T08:19:11.032Z,103.50
2022-11-30T08:20:11.004Z,97.30
2022-11-30T08:21:11.007Z,95.70
2022-11-30T08:22:10.977Z,98.20
2022-11-30T08:23:10.994Z,105.60
2022-11-30T08:24:11.015Z,106.90
2022-11-30T08:25:10.977Z,109.60
2022-11-30T08:26:10.955Z,100.40
2022-11-30T08:27:10.924Z,99.10
2022-11-30T08:28:10.903Z,101.20
2022-11-30T08:29:10.886Z,101.90
2022-11-30T08:30:10.870Z,106.00
2022-11-30T08:31:10.913Z,100.50
2022-11-30T08:32:10.853Z,110.00
2022-11-30T08:33:10.867Z,102.00
2022-11-30T08:34:10.838Z,102.00
2022-11-30T08:35:11.040Z,107.30
2022-11-30T08:36:10.787Z,99.50
2022-11-30T08:37:11.728Z,103.30
2022-11-30T08:38:10.799Z,102.40
2022-11-30T08:39:10.794Z,95.00
2022-11-30T08:40:10.740Z,97.10
2022-11-30T08:41:10.741Z,112.80
2022-11-30T08:42:10.740Z,96.00
2022-11-30T08:43:10.703Z,99.80
2022-11-30T08:44:10.678Z,103.30
2022-11-30T08:45:10.677Z,99.30
2022-11-30T08:46:34.656Z,97.90
2022-11-30T08:47:11.713Z,100.10
2022-11-30T08:48:10.646Z,99.10
2022-11-30T08:49:25.805Z,104.00
2022-11-30T08:50:11.598Z,102.20
2022-11-30T08:51:10.601Z,96.40
2022-11-30T08:52:18.626Z,100.30
2022-11-30T08:53:11.581Z,96.30
2022-11-30T08:54:10.542Z,102.90
2022-11-30T08:55:10.537Z,97.60
2022-11-30T08:56:10.520Z,100.40
2022-11-30T08:57:10.518Z,96.70
2022-11-30T08:58:10.522Z,103.60
2022-11-30T08:59:10.485Z,94.10
2022-11-30T09:00:10.463Z,99.80
2022-11-30T09:01:10.455Z,105.00
2022-11-30T09:02:10.540Z,102.50
2022-11-30T09:03:10.451Z,100.00
2022-11-30T09:04:10.422Z,104.70
2022-11-30T09:05:10.801Z,103.30
2022-11-30T09:06:10.439Z,99.60
2022-11-30T09:07:10.374Z,95.50
2022-11-30T09:08:10.389Z,102.90
2022-11-30T09:09:10.346Z,102.50
2022-11-30T09:10:10.331Z,95.40
2022-11-30T09:11:10.327Z,95.60
2022-11-30T09:12:10.300Z,100.50
2022-11-30T09:13:10.486Z,102.20
2022-11-30T09:14:10.277Z,96.10
2022-11-30T09:15:10.279Z,106.00
2022-11-30T09:16:10.283Z,100.60
2022-11-30T09:17:10.248Z,94.90
2022-11-30T09:18:10.226Z,97.60
2022-11-30T09:19:10.207Z,98.90
2022-11-30T09:20:10.233Z,94.60
2022-11-30T09:21:11.153Z,93.20
2022-11-30T09:22:10.191Z,92.50
2022-11-30T09:23:10.175Z,101.50
2022-11-30T09:24:10.148Z,97.10
2022-11-30T09:25:10.137Z,93.70
2022-11-30T09:26:10.154Z,97.60
2022-11-30T09:27:10.111Z,91.70
2022-11-30T09:28:12.445Z,91.90
2022-11-30T09:29:10.096Z,93.80
2022-11-30T09:30:10.067Z,92.50
2022-11-30T09:31:10.084Z,89.40
2022-11-30T09:32:10.032Z,89.80
2022-11-30T09:33:10.053Z,86.80
2022-11-30T09:34:10.010Z,89.80
2022-11-30T09:35:12.782Z,90.40
2022-11-30T09:36:10.771Z,90.50
2022-11-30T09:37:09.971Z,97.80
2022-11-30T09:38:09.974Z,99.70
2022-11-30T09:39:09.944Z,92.50
2022-11-30T09:40:09.921Z,90.90
2022-11-30T09:41:09.911Z,94.80
2022-11-30T09:42:09.895Z,96.50
2022-11-30T09:43:09.902Z,95.90
2022-11-30T09:44:09.890Z,95.40
2022-11-30T09:45:09.865Z,90.60
2022-11-30T09:46:09.909Z,93.30
2022-11-30T09:47:09.834Z,84.80
2022-11-30T09:48:09.824Z,87.30
2022-11-30T09:49:09.827Z,90.50
2022-11-30T09:50:09.793Z,94.10
2022-11-30T09:51:09.791Z,83.40
2022-11-30T09:52:09.772Z,90.00
2022-11-30T09:53:09.775Z,89.00
2022-11-30T09:54:09.738Z,89.10
2022-11-30T09:55:09.731Z,86.40
2022-11-30T09:56:09.715Z,98.80
2022-11-30T09:57:09.702Z,90.30
2022-11-30T09:58:09.696Z,89.20
2022-11-30T09:59:09.676Z,89.00
2022-11-30T10:00:09.661Z,87.80
2022-11-30T10:01:09.974Z,88.20
2022-11-30T10:02:09.707Z,94.50
2022-11-30T10:03:09.692Z,91.90
2022-11-30T10:04:09.607Z,100.00
2022-11-30T10:05:09.597Z,82.00
2022-11-30T10:06:09.579Z,89.80
2022-11-30T10:07:09.573Z,87.30
2022-11-30T10:08:09.601Z,81.80
2022-11-30T10:09:09.560Z,84.30
2022-11-30T10:10:30.927Z,87.40
2022-11-30T10:11:12.386Z,88.50
2022-11-30T10:12:09.504Z,91.70
2022-11-30T10:13:09.499Z,97.30
2022-11-30T10:14:09.469Z,83.20
2022-11-30T10:15:09.462Z,81.70
2022-11-30T10:16:09.770Z,83.00
2022-11-30T10:17:09.454Z,85.90
2022-11-30T10:18:09.430Z,83.60
2022-11-30T10:19:09.411Z,88.10
2022-11-30T10:20:10.353Z,84.50
2022-11-30T10:21:09.649Z,84.70
2022-11-30T10:22:09.674Z,91.20
2022-11-30T10:23:09.372Z,83.80
2022-11-30T10:24:09.389Z,81.00
2022-11-30T10:25:12.008Z,80.30
2022-11-30T10:26:09.325Z,81.30
2022-11-30T10:27:10.269Z,83.80
2022-11-30T10:28:38.488Z,82.60
2022-11-30T10:29:10.284Z,82.00
2022-11-30T10:30:09.264Z,80.90
2022-11-30T10:31:09.319Z,89.00
2022-11-30T10:32:09.263Z,82.40
2022-11-30T10:33:09.232Z,78.70
2022-11-30T10:34:09.235Z,91.30
2022-11-30T10:35:09.208Z,80.20
2022-11-30T10:36:09.196Z,81.40
2022-11-30T10:37:09.198Z,76.20
2022-11-30T10:38:09.195Z,80.10
2022-11-30T10:39:14.173Z,90.80
2022-11-30T10:40:10.162Z,77.10
2022-11-30T10:41:09.121Z,85.50
2022-11-30T10:42:09.107Z,80.40
2022-11-30T10:43:09.096Z,80.70
2022-11-30T10:44:09.087Z,78.70
2022-11-30T10:45:09.097Z,82.90
2022-11-30T10:46:13.996Z,87.10
2022-11-30T10:47:10.045Z,79.70
2022-11-30T10:48:09.040Z,79.70
2022-11-30T10:49:09.028Z,80.20
2022-11-30T10:50:09.022Z,87.80
2022-11-30T10:51:08.985Z,78.60
2022-11-30T10:52:08.999Z,76.90
2022-11-30T10:53:08.960Z,78.40
2022-11-30T10:54:08.959Z,74.50
2022-11-30T10:55:08.971Z,75.90
2022-11-30T10:56:08.939Z,79.00
2022-11-30T10:57:08.921Z,81.40
2022-11-30T10:58:08.894Z,74.00
2022-11-30T10:59:08.903Z,82.00
2022-11-30T11:00:08.891Z,73.30
2022-11-30T11:01:08.907Z,78.60
2022-11-30T11:02:08.880Z,75.40
2022-11-30T11:03:08.883Z,72.20
2022-11-30T11:04:08.942Z,73.90
2022-11-30T11:05:08.804Z,78.30
2022-11-30T11:06:09.741Z,78.90
2022-11-30T11:07:08.874Z,83.20
2022-11-30T11:08:08.790Z,75.50
2022-11-30T11:09:08.761Z,72.50
2022-11-30T11:10:09.683Z,73.60
2022-11-30T11:11:08.718Z,70.00
2022-11-30T11:12:08.732Z,80.50
2022-11-30T11:13:08.693Z,85.20
2022-11-30T11:14:08.684Z,75.90
2022-11-30T11:15:08.665Z,76.50
2022-11-30T11:16:09.625Z,78.80
2022-11-30T11:17:08.644Z,76.60
2022-11-30T11:18:08.624Z,81.10
2022-11-30T11:19:08.621Z,81.10
2022-11-30T11:20:08.615Z,82.60
2022-11-30T11:21:08.602Z,90.20
2022-11-30T11:22:08.578Z,79.10
2022-11-30T11:23:08.563Z,79.80
2022-11-30T11:24:08.557Z,78.50
2022-11-30T11:25:08.529Z,82.00
2022-11-30T11:26:08.517Z,82.20
2022-11-30T11:27:09.467Z,78.50
2022-11-30T11:28:08.490Z,81.00
2022-11-30T11:29:08.506Z,77.50
2022-11-30T11:30:08.483Z,78.90
2022-11-30T11:31:08.711Z,78.80
2022-11-30T11:32:08.463Z,75.70
2022-11-30T11:33:08.429Z,75.30
2022-11-30T11:34:08.429Z,73.10
2022-11-30T11:35:08.405Z,67.00
2022-11-30T11:36:08.379Z,67.90
2022-11-30T11:37:08.378Z,67.40
2022-11-30T11:38:08.350Z,62.20
2022-11-30T11:39:08.370Z,66.40
2022-11-30T11:40:08.334Z,70.90
2022-11-30T11:41:08.319Z,71.30
2022-11-30T11:42:08.320Z,67.20
2022-11-30T11:43:08.292Z,67.10
2022-11-30T11:44:08.300Z,63.30
2022-11-30T11:45:08.280Z,52.60
2022-11-30T11:46:08.285Z,70.60
2022-11-30T11:47:08.267Z,67.70
2022-11-30T11:48:08.226Z,64.20
2022-11-30T11:49:08.223Z,60.10
2022-11-30T11:50:08.198Z,58.30
2022-11-30T11:51:08.661Z,62.10
2022-11-30T11:52:08.163Z,74.20
2022-11-30T11:53:08.358Z,77.60
2022-11-30T11:54:08.260Z,70.80
2022-11-30T11:55:08.164Z,81.00
2022-11-30T11:56:08.114Z,75.00
2022-11-30T11:57:08.120Z,73.00
2022-11-30T11:58:08.095Z,74.30
2022-11-30T11:59:08.084Z,74.70
2022-11-30T12:00:15.667Z,76.90
2022-11-30T12:01:38.098Z,79.20
2022-11-30T12:02:09.045Z,79.50
2022-11-30T12:03:08.057Z,70.20
2022-11-30T12:04:08.065Z,72.30
2022-11-30T12:05:08.006Z,85.80
2022-11-30T12:06:07.976Z,65.90
2022-11-30T12:07:07.967Z,66.40
2022-11-30T12:08:08.978Z,71.80
2022-11-30T12:09:07.964Z,65.00
2022-11-30T12:10:28.233Z,61.60
2022-11-30T12:11:08.927Z,64.20
2022-11-30T12:12:07.905Z,70.00
2022-11-30T12:13:07.907Z,60.70
2022-11-30T12:14:07.900Z,62.40
2022-11-30T12:15:07.870Z,68.10
2022-11-30T12:16:07.874Z,62.90
2022-11-30T12:17:07.838Z,69.70
2022-11-30T12:18:14.182Z,53.60
2022-11-30T12:19:08.831Z,55.10
2022-11-30T12:20:07.798Z,59.00
2022-11-30T12:21:07.793Z,47.20
2022-11-30T12:22:07.768Z,58.70
2022-11-30T12:23:07.915Z,55.90
2022-11-30T12:24:07.749Z,56.40
2022-11-30T12:25:07.732Z,63.40
2022-11-30T12:26:07.709Z,49.30
2022-11-30T12:27:07.708Z,55.70
2022-11-30T12:28:07.701Z,44.00
2022-11-30T12:29:07.738Z,51.00
2022-11-30T12:30:07.662Z,47.80
2022-11-30T12:31:07.710Z,54.40
2022-11-30T12:32:07.639Z,47.70
2022-11-30T12:33:07.612Z,51.50
2022-11-30T12:34:07.633Z,44.50
2022-11-30T12:35:07.838Z,46.70
2022-11-30T12:36:07.597Z,47.90
2022-11-30T12:37:07.567Z,43.60
2022-11-30T12:38:07.562Z,43.90
2022-11-30T12:39:07.552Z,43.80
2022-11-30T12:40:07.551Z,51.70
2022-11-30T12:41:07.515Z,47.90
2022-11-30T12:42:07.536Z,41.80
2022-11-30T12:43:07.501Z,40.60
2022-11-30T12:44:07.498Z,47.40
2022-11-30T12:45:07.472Z,40.90
2022-11-30T12:46:07.526Z,38.50
2022-11-30T12:47:07.433Z,40.60
2022-11-30T12:48:07.425Z,39.40
2022-11-30T12:49:07.716Z,52.60
2022-11-30T12:50:07.548Z,50.50
2022-11-30T12:51:07.387Z,53.40
2022-11-30T12:52:07.372Z,40.80
2022-11-30T12:53:07.365Z,38.30
2022-11-30T12:54:07.357Z,40.10
2022-11-30T12:55:07.323Z,37.40
2022-11-30T12:56:07.329Z,36.60
2022-11-30T12:57:07.300Z,46.00